createdAt,value
2022-09-18T00:01:43.746Z,4.88
2022-09-18T00:04:17.921Z,5.22
2022-09-18T00:06:47.376Z,5.28
2022-09-18T00:09:17.272Z,5.43
2022-09-18T00:11:49.469Z,6.13
2022-09-18T00:14:22.403Z,7.15
2022-09-18T00:16:52.008Z,5.88
2022-09-18T00:19:21.581Z,5.43
2022-09-18T00:21:52.450Z,5.35
2022-09-18T00:24:23.362Z,4.50
2022-09-18T00:26:52.298Z,4.50
2022-09-18T00:29:21.151Z,4.57
2022-09-18T00:31:50.111Z,4.22
2022-09-18T00:34:19.385Z,4.15
2022-09-18T00:36:48.251Z,4.65
2022-09-18T00:39:17.428Z,5.32
2022-09-18T00:41:46.431Z,5.00
2022-09-18T00:44:43.066Z,4.75
2022-09-18T00:47:11.888Z,4.95
2022-09-18T00:49:46.129Z,4.18
2022-09-18T00:52:18.252Z,5.18
2022-09-18T00:54:56.741Z,4.97
2022-09-18T00:57:34.030Z,4.55
2022-09-18T01:00:05.927Z,4.78
2022-09-18T01:02:34.866Z,4.03
2022-09-18T01:05:03.952Z,3.38
2022-09-18T01:07:57.327Z,3.15
2022-09-18T01:10:48.186Z,3.80
2022-09-18T01:13:41.945Z,3.92
2022-09-18T01:16:26.239Z,5.10
2022-09-18T01:19:01.295Z,5.25
2022-09-18T01:21:56.182Z,8.50
2022-09-18T01:24:36.972Z,4.45
2022-09-18T01:27:08.502Z,5.20
2022-09-18T01:29:40.082Z,7.20
2022-09-18T01:32:40.356Z,9.82
2022-09-18T01:35:47.940Z,9.43
2022-09-18T01:38:37.764Z,4.95
2022-09-18T01:41:22.109Z,3.80
2022-09-18T01:43:56.123Z,4.20
2022-09-18T01:49:17.947Z,4.80
2022-09-18T01:51:57.593Z,5.15
2022-09-18T01:54:34.486Z,5.50
2022-09-18T01:57:15.304Z,5.43
2022-09-18T02:00:02.073Z,4.80
2022-09-18T02:02:57.457Z,4.65
2022-09-18T02:05:34.717Z,5.45
2022-09-18T02:08:14.113Z,7.03
2022-09-18T02:10:56.581Z,6.25
2022-09-18T02:13:42.323Z,5.50
2022-09-18T02:16:22.673Z,5.57
2022-09-18T02:18:57.960Z,4.97
2022-09-18T02:21:30.137Z,5.15
2022-09-18T02:24:06.962Z,4.90
2022-09-18T02:26:39.017Z,4.40
2022-09-18T02:29:10.111Z,5.95
2022-09-18T02:31:40.737Z,5.47
2022-09-18T02:34:11.726Z,4.45
2022-09-18T02:36:58.938Z,4.45
2022-09-18T02:39:40.279Z,4.85
2022-09-18T02:42:12.279Z,4.35
2022-09-18T02:45:05.055Z,4.47
2022-09-18T02:47:43.148Z,3.70
2022-09-18T02:50:29.855Z,4.60
2022-09-18T02:53:17.165Z,4.68
2022-09-18T02:56:07.056Z,5.40
2022-09-18T02:59:03.564Z,5.50
2022-09-18T03:01:33.801Z,6.57
2022-09-18T03:04:15.906Z,6.15
2022-09-18T03:06:44.776Z,6.18
2022-09-18T03:09:13.646Z,4.53
2022-09-18T03:11:42.498Z,4.53
2022-09-18T03:14:13.050Z,3.55
2022-09-18T03:16:41.864Z,4.68
2022-09-18T03:19:12.914Z,5.75
2022-09-18T03:21:42.522Z,5.07
2022-09-18T03:24:11.495Z,4.78
2022-09-18T03:26:40.358Z,5.95
2022-09-18T03:29:10.416Z,5.13
2022-09-18T03:31:44.563Z,4.85
2022-09-18T03:34:13.768Z,4.30
2022-09-18T03:36:42.651Z,5.20
2022-09-18T03:39:11.997Z,3.67
2022-09-18T03:41:41.331Z,4.30
2022-09-18T03:44:10.248Z,4.95
2022-09-18T03:46:45.132Z,7.72
2022-09-18T03:49:14.133Z,5.20
2022-09-18T03:51:45.855Z,8.30
2022-09-18T03:54:15.764Z,8.07
2022-09-18T03:56:44.775Z,7.45
2022-09-18T03:59:16.570Z,6.07
2022-09-18T04:01:45.494Z,5.15
2022-09-18T04:04:14.526Z,5.50
2022-09-18T04:06:43.391Z,4.28
2022-09-18T04:09:12.285Z,4.65
2022-09-18T04:11:44.477Z,5.53
2022-09-18T04:14:13.676Z,3.72
2022-09-18T04:16:43.022Z,3.17
2022-09-18T04:19:12.490Z,3.80
2022-09-18T04:21:41.385Z,4.60
2022-09-18T04:24:10.306Z,4.30
2022-09-18T04:26:39.389Z,11.82
2022-09-18T04:29:13.754Z,7.47
2022-09-18T04:31:44.677Z,2.97
2022-09-18T04:34:13.577Z,5.18
2022-09-18T04:36:42.441Z,4.70
2022-09-18T04:39:11.288Z,3.00
2022-09-18T04:41:40.195Z,4.45
2022-09-18T04:44:09.210Z,4.00
2022-09-18T04:46:38.129Z,3.88
2022-09-18T04:49:07.101Z,3.72
2022-09-18T04:51:40.554Z,3.72
2022-09-18T04:54:10.858Z,6.40
2022-09-18T04:56:42.102Z,4.03
2022-09-18T04:59:11.022Z,2.67
2022-09-18T05:01:40.268Z,7.07
2022-09-18T05:04:09.587Z,2.40
2022-09-18T05:06:38.475Z,2.88
2022-09-18T05:09:07.406Z,2.70
2022-09-18T05:11:36.293Z,4.18
2022-09-18T05:14:05.153Z,5.63
2022-09-18T05:16:34.350Z,6.70
2022-09-18T05:19:03.305Z,8.60
2022-09-18T05:21:32.198Z,6.35
2022-09-18T05:24:01.453Z,6.97
2022-09-18T05:26:31.548Z,4.68
2022-09-18T05:29:00.424Z,5.57
2022-09-18T05:31:29.340Z,6.93
2022-09-18T05:33:58.538Z,3.20
2022-09-18T05:36:27.483Z,3.08
2022-09-18T05:38:56.375Z,3.72
2022-09-18T05:41:25.295Z,18.45
2022-09-18T05:43:54.277Z,17.35
2022-09-18T05:46:23.308Z,15.90
2022-09-18T05:48:52.417Z,16.48
2022-09-18T05:51:21.303Z,17.75
2022-09-18T05:53:50.394Z,2.70
2022-09-18T05:56:19.318Z,5.13
2022-09-18T05:58:50.200Z,4.10
2022-09-18T06:01:19.118Z,2.90
2022-09-18T06:03:51.638Z,2.20
2022-09-18T06:06:20.820Z,2.20
2022-09-18T06:08:49.708Z,1.98
2022-09-18T06:11:22.619Z,2.58
2022-09-18T06:13:53.572Z,1.97
2022-09-18T06:16:22.714Z,2.65
2022-09-18T06:18:51.628Z,1.63
2022-09-18T06:21:20.716Z,1.77
2022-09-18T06:23:49.611Z,1.00
2022-09-18T06:26:18.509Z,2.38
2022-09-18T06:28:50.589Z,1.35
2022-09-18T06:31:19.584Z,1.10
2022-09-18T06:33:50.596Z,1.08
2022-09-18T06:36:20.734Z,1.63
2022-09-18T06:38:52.350Z,1.50
2022-09-18T06:41:21.281Z,1.80
2022-09-18T06:43:52.756Z,1.52
2022-09-18T06:46:22.004Z,1.50
2022-09-18T06:48:57.324Z,1.00
2022-09-18T06:51:26.202Z,1.05
2022-09-18T06:53:55.034Z,1.40
2022-09-18T06:56:29.943Z,1.30
2022-09-18T06:58:58.949Z,2.28
2022-09-18T07:01:27.925Z,1.20
2022-09-18T07:03:56.820Z,1.63
2022-09-18T07:06:25.935Z,1.25
2022-09-18T07:08:55.021Z,1.25
2022-09-18T07:11:24.092Z,1.48
2022-09-18T07:13:54.331Z,1.40
2022-09-18T07:16:25.615Z,1.75
2022-09-18T07:18:55.024Z,1.60
2022-09-18T07:21:30.492Z,1.20
2022-09-18T07:23:59.496Z,1.40
2022-09-18T07:26:32.447Z,2.17
2022-09-18T07:29:01.408Z,1.90
2022-09-18T07:31:36.692Z,1.20
2022-09-18T07:34:05.769Z,2.05
2022-09-18T07:36:34.682Z,2.50
2022-09-18T07:39:03.713Z,1.20
2022-09-18T07:41:32.807Z,1.73
2022-09-18T07:44:02.659Z,1.70
2022-09-18T07:46:31.768Z,1.60
2022-09-18T07:49:00.756Z,2.40
2022-09-18T07:51:30.162Z,1.30
2022-09-18T07:53:59.053Z,2.25
2022-09-18T07:56:34.433Z,2.50
2022-09-18T07:59:03.433Z,2.20
2022-09-18T08:01:34.574Z,2.50
2022-09-18T08:04:05.148Z,2.20
2022-09-18T08:06:34.534Z,1.35
2022-09-18T08:09:04.050Z,1.30
2022-09-18T08:11:33.186Z,1.52
2022-09-18T08:14:02.124Z,1.50
2022-09-18T08:16:31.182Z,1.95
2022-09-18T08:19:00.089Z,1.80
2022-09-18T08:21:31.101Z,1.67
2022-09-18T08:24:00.088Z,2.25
2022-09-18T08:26:29.167Z,1.27
2022-09-18T08:28:58.084Z,1.23
2022-09-18T08:34:14.744Z,1.30
2022-09-18T08:36:43.619Z,1.05
2022-09-18T08:39:12.511Z,1.00
2022-09-18T08:42:05.449Z,1.52
2022-09-18T08:44:44.754Z,1.33
2022-09-18T08:47:19.738Z,1.42
2022-09-18T08:50:20.760Z,1.55
2022-09-18T08:52:57.459Z,1.30
2022-09-18T08:55:28.912Z,1.30
2022-09-18T08:58:28.316Z,1.30
2022-09-18T09:01:24.275Z,1.40
2022-09-18T09:04:14.843Z,1.42
2022-09-18T09:06:49.633Z,1.60
2022-09-18T09:09:33.045Z,2.15
2022-09-18T09:12:01.888Z,1.20
2022-09-18T09:14:58.202Z,1.17
2022-09-18T09:17:47.348Z,1.45
2022-09-18T09:20:52.155Z,2.38
2022-09-18T09:23:25.347Z,1.48
2022-09-18T09:26:07.599Z,1.30
2022-09-18T09:28:56.881Z,1.63
2022-09-18T09:31:30.895Z,1.33
2022-09-18T09:34:24.257Z,1.77
2022-09-18T09:36:57.900Z,4.43
2022-09-18T09:39:45.132Z,1.60
2022-09-18T09:45:34.601Z,1.40
2022-09-18T09:48:22.325Z,1.27
2022-09-18T09:51:03.575Z,3.80
2022-09-18T09:53:32.599Z,2.33
2022-09-18T09:56:29.991Z,2.22
2022-09-18T09:59:28.224Z,2.33
2022-09-18T10:02:18.489Z,1.58
2022-09-18T10:04:54.964Z,1.15
2022-09-18T10:07:37.265Z,1.05
2022-09-18T10:10:44.570Z,1.20
2022-09-18T10:13:18.615Z,1.00
2022-09-18T10:15:50.730Z,1.02
2022-09-18T10:18:27.043Z,1.20
2022-09-18T10:21:07.723Z,1.10
2022-09-18T10:24:01.835Z,3.97
2022-09-18T10:29:05.192Z,3.60
2022-09-18T10:31:54.061Z,3.83
2022-09-18T10:34:44.883Z,1.38
2022-09-18T10:37:38.897Z,13.80
2022-09-18T10:40:28.075Z,1.98
2022-09-18T10:42:57.721Z,1.60
2022-09-18T10:45:37.736Z,5.40
2022-09-18T10:48:19.881Z,2.30
2022-09-18T10:51:03.068Z,1.60
2022-09-18T10:53:39.850Z,1.50
2022-09-18T10:56:23.656Z,4.03
2022-09-18T10:58:52.588Z,3.22
2022-09-18T11:01:22.425Z,2.67
2022-09-18T11:04:02.243Z,2.50
2022-09-18T11:06:35.555Z,1.95
2022-09-18T11:09:10.655Z,2.10
2022-09-18T11:11:44.428Z,2.03
2022-09-18T11:14:27.361Z,1.88
2022-09-18T11:17:02.143Z,1.80
2022-09-18T11:19:40.694Z,1.90
2022-09-18T11:22:38.488Z,2.50
2022-09-18T11:25:16.498Z,2.92
2022-09-18T11:27:54.865Z,3.47
2022-09-18T11:30:26.136Z,4.00
2022-09-18T11:33:25.482Z,4.10
2022-09-18T11:36:01.122Z,2.17
2022-09-18T11:38:31.143Z,6.43
2022-09-18T11:41:02.779Z,6.20
2022-09-18T11:43:36.923Z,7.78
2022-09-18T11:46:38.198Z,5.47
2022-09-18T11:49:17.172Z,3.15
2022-09-18T11:51:57.459Z,2.35
2022-09-18T11:54:55.728Z,3.15
2022-09-18T11:57:41.588Z,2.85
2022-09-18T12:00:18.421Z,2.42
2022-09-18T12:03:01.507Z,2.20
2022-09-18T12:05:57.856Z,2.28
2022-09-18T12:08:34.503Z,2.58
2022-09-18T12:11:21.849Z,2.60
2022-09-18T12:14:26.070Z,2.47
2022-09-18T12:17:01.249Z,4.32
2022-09-18T12:19:49.412Z,5.22
2022-09-18T12:22:29.405Z,4.78
2022-09-18T12:24:58.409Z,4.70
2022-09-18T12:28:10.048Z,2.78
2022-09-18T12:30:50.622Z,3.30
2022-09-18T12:33:33.428Z,3.03
2022-09-18T12:36:39.111Z,3.10
2022-09-18T12:39:39.339Z,5.10
2022-09-18T12:42:40.334Z,2.70
2022-09-18T12:45:34.970Z,2.85
2022-09-18T12:48:22.346Z,3.25
2022-09-18T12:51:15.519Z,3.08
2022-09-18T12:54:16.030Z,2.40
2022-09-18T12:57:21.861Z,2.45
2022-09-18T12:59:56.074Z,2.33
2022-09-18T13:02:56.037Z,1.95
2022-09-18T13:05:24.931Z,1.70
2022-09-18T13:08:06.190Z,1.85
2022-09-18T13:10:41.009Z,1.73
2022-09-18T13:13:41.499Z,1.90
2022-09-18T13:16:19.278Z,1.67
2022-09-18T13:19:02.272Z,3.15
2022-09-18T13:21:38.811Z,1.83
2022-09-18T13:24:12.625Z,2.13
2022-09-18T13:29:47.796Z,1.58
2022-09-18T13:32:26.424Z,1.90
2022-09-18T13:35:00.877Z,1.98
2022-09-18T13:37:32.043Z,1.83
2022-09-18T13:40:27.485Z,2.13
2022-09-18T13:42:56.561Z,5.88
2022-09-18T13:45:28.051Z,5.10
2022-09-18T13:48:17.365Z,1.60
2022-09-18T13:51:03.731Z,2.00
2022-09-18T13:53:47.426Z,1.80
2022-09-18T13:56:17.923Z,2.35
2022-09-18T13:58:55.939Z,2.60
2022-09-18T14:01:43.112Z,3.35
2022-09-18T14:04:44.572Z,2.40
2022-09-18T14:07:33.483Z,2.00
2022-09-18T14:10:07.012Z,1.63
2022-09-18T14:12:37.014Z,2.72
2022-09-18T14:15:18.733Z,2.65
2022-09-18T14:18:07.855Z,3.38
2022-09-18T14:20:36.989Z,3.28
2022-09-18T14:23:41.799Z,2.80
2022-09-18T14:29:11.271Z,3.00
2022-09-18T14:32:01.208Z,2.97
2022-09-18T14:34:39.234Z,2.90
2022-09-18T14:37:34.159Z,3.70
2022-09-18T14:40:13.108Z,3.50
2022-09-18T14:42:44.365Z,3.80
2022-09-18T14:45:16.086Z,2.15
2022-09-18T14:47:47.710Z,2.53
2022-09-18T14:50:38.739Z,2.08
2022-09-18T14:53:28.949Z,2.72
2022-09-18T14:56:07.466Z,2.13
2022-09-18T14:58:42.274Z,2.05
2022-09-18T15:01:18.401Z,1.70
2022-09-18T15:03:50.498Z,1.92
2022-09-18T15:06:33.198Z,1.83
2022-09-18T15:09:03.193Z,1.27
2022-09-18T15:11:52.228Z,1.42
2022-09-18T15:14:41.517Z,1.50
2022-09-18T15:17:37.973Z,1.20
2022-09-18T15:20:17.577Z,1.38
2022-09-18T15:22:46.422Z,1.40
2022-09-18T15:25:16.585Z,1.35
2022-09-18T15:27:46.595Z,1.40
2022-09-18T15:30:21.208Z,1.42
2022-09-18T15:32:56.036Z,1.42
2022-09-18T15:35:27.905Z,1.58
2022-09-18T15:38:03.673Z,1.30
2022-09-18T15:40:38.688Z,1.55
2022-09-18T15:43:27.681Z,1.60
2022-09-18T15:46:08.609Z,1.23
2022-09-18T15:48:52.014Z,1.40
2022-09-18T15:51:27.463Z,1.20
2022-09-18T15:54:14.282Z,1.30
2022-09-18T15:57:03.229Z,1.00
2022-09-18T15:59:38.494Z,1.20
2022-09-18T16:02:40.095Z,1.15
2022-09-18T16:05:16.070Z,1.30
2022-09-18T16:08:03.457Z,1.33
2022-09-18T16:10:38.447Z,1.83
2022-09-18T16:13:13.592Z,1.40
2022-09-18T16:15:48.491Z,1.95
2022-09-18T16:18:17.272Z,1.30
2022-09-18T16:21:06.928Z,1.35
2022-09-18T16:23:48.774Z,1.13
2022-09-18T16:26:32.698Z,1.63
2022-09-18T16:29:23.364Z,2.30
2022-09-18T16:31:52.279Z,2.03
2022-09-18T16:34:31.055Z,1.73
2022-09-18T16:37:00.123Z,1.67
2022-09-18T16:39:29.196Z,1.50
2022-09-18T16:41:58.116Z,1.52
2022-09-18T16:44:26.985Z,3.70
2022-09-18T16:47:02.009Z,3.80
2022-09-18T16:49:36.777Z,4.28
2022-09-18T16:52:06.422Z,3.28
2022-09-18T16:54:35.382Z,4.13
2022-09-18T16:57:19.397Z,1.50
2022-09-18T16:59:49.772Z,1.83
2022-09-18T17:02:25.466Z,1.90
2022-09-18T17:04:55.045Z,1.75
2022-09-18T17:07:23.860Z,1.98
2022-09-18T17:09:52.978Z,1.75
2022-09-18T17:12:21.869Z,1.60
2022-09-18T17:14:50.837Z,1.42
2022-09-18T17:17:19.843Z,1.88
2022-09-18T17:19:48.827Z,1.90
2022-09-18T17:22:20.918Z,2.33
2022-09-18T17:24:53.074Z,1.70
2022-09-18T17:27:22.128Z,1.73
2022-09-18T17:29:50.993Z,2.00
2022-09-18T17:32:20.013Z,2.05
2022-09-18T17:34:48.890Z,2.20
2022-09-18T17:37:17.771Z,2.00
2022-09-18T17:39:47.510Z,1.88
2022-09-18T17:42:16.526Z,1.80
2022-09-18T17:44:45.395Z,1.92
2022-09-18T17:47:14.429Z,2.15
2022-09-18T17:49:43.415Z,1.90
2022-09-18T17:52:12.274Z,1.85
2022-09-18T17:54:41.275Z,4.10
2022-09-18T17:57:13.256Z,2.45
2022-09-18T17:59:44.910Z,2.20
2022-09-18T18:02:14.729Z,2.15
2022-09-18T18:04:43.642Z,1.95
2022-09-18T18:07:12.517Z,2.17
2022-09-18T18:09:41.989Z,2.42
2022-09-18T18:12:10.832Z,2.33
2022-09-18T18:14:39.791Z,2.63
2022-09-18T18:17:09.720Z,2.35
2022-09-18T18:19:38.747Z,2.75
2022-09-18T18:22:07.704Z,2.30
2022-09-18T18:24:36.594Z,5.13
2022-09-18T18:27:06.264Z,6.40
2022-09-18T18:29:35.134Z,2.33
2022-09-18T18:32:04.135Z,2.70
2022-09-18T18:34:33.804Z,2.85
2022-09-18T18:37:04.036Z,2.80
2022-09-18T18:39:32.939Z,2.65
2022-09-18T18:42:01.920Z,2.55
2022-09-18T18:44:30.812Z,2.80
2022-09-18T18:47:00.295Z,2.70
2022-09-18T18:49:29.222Z,3.00
2022-09-18T18:51:58.360Z,3.00
2022-09-18T18:54:27.257Z,2.80
2022-09-18T18:56:56.211Z,3.00
2022-09-18T18:59:26.720Z,3.13
2022-09-18T19:01:58.844Z,3.00
2022-09-18T19:04:28.015Z,3.08
2022-09-18T19:06:57.813Z,3.08
2022-09-18T19:09:29.624Z,3.35
2022-09-18T19:11:58.785Z,3.20
2022-09-18T19:14:32.624Z,4.75
2022-09-18T19:17:02.204Z,3.33
2022-09-18T19:19:31.466Z,3.50
2022-09-18T19:22:00.638Z,3.70
2022-09-18T19:24:31.245Z,3.38
2022-09-18T19:27:00.136Z,3.83
2022-09-18T19:29:30.570Z,3.95
2022-09-18T19:32:00.506Z,3.95
2022-09-18T19:34:29.585Z,3.65
2022-09-18T19:37:00.463Z,4.68
2022-09-18T19:39:29.449Z,4.75
2022-09-18T19:42:13.422Z,3.65
2022-09-18T19:44:55.402Z,3.67
2022-09-18T19:47:36.883Z,3.85
2022-09-18T19:50:07.352Z,4.05
2022-09-18T19:52:36.354Z,3.80
2022-09-18T19:55:05.370Z,3.95
2022-09-18T19:57:34.237Z,3.97
2022-09-18T20:00:03.755Z,4.50
2022-09-18T20:02:32.639Z,4.40
2022-09-18T20:05:03.058Z,4.57
2022-09-18T20:07:32.189Z,5.22
2022-09-18T20:10:01.184Z,4.97
2022-09-18T20:12:34.831Z,5.20
2022-09-18T20:15:04.878Z,4.65
2022-09-18T20:17:34.022Z,4.28
2022-09-18T20:20:03.277Z,4.30
2022-09-18T20:22:32.167Z,4.68
2022-09-18T20:25:01.098Z,4.13
2022-09-18T20:27:29.945Z,4.85
2022-09-18T20:29:58.848Z,4.22
2022-09-18T20:32:27.728Z,5.22
2022-09-18T20:34:57.749Z,6.10
2022-09-18T20:37:28.262Z,4.68
2022-09-18T20:39:57.121Z,4.90
2022-09-18T20:42:26.888Z,4.80
2022-09-18T20:45:01.256Z,5.05
2022-09-18T20:47:35.938Z,6.00
2022-09-18T20:50:07.595Z,6.15
2022-09-18T20:52:44.180Z,5.68
2022-09-18T20:55:18.551Z,6.13
2022-09-18T20:57:47.765Z,5.80
2022-09-18T21:00:18.250Z,6.35
2022-09-18T21:02:52.882Z,7.60
2022-09-18T21:05:21.901Z,5.55
2022-09-18T21:07:58.418Z,5.70
2022-09-18T21:10:27.289Z,5.90
2022-09-18T21:12:56.197Z,6.30
2022-09-18T21:15:25.040Z,6.25
2022-09-18T21:17:54.022Z,5.85
2022-09-18T21:20:22.960Z,6.35
2022-09-18T21:23:10.207Z,5.60
2022-09-18T21:25:39.259Z,5.97
2022-09-18T21:28:08.119Z,7.15
2022-09-18T21:30:36.969Z,6.72
2022-09-18T21:33:05.870Z,6.60
2022-09-18T21:35:35.734Z,6.75
2022-09-18T21:38:05.854Z,6.40
2022-09-18T21:40:34.792Z,5.93
2022-09-18T21:43:04.403Z,6.10
2022-09-18T21:45:33.206Z,6.10
2022-09-18T21:48:02.010Z,6.05
2022-09-18T21:50:30.860Z,6.45
2022-09-18T21:52:59.717Z,6.07
2022-09-18T21:55:28.618Z,7.00
2022-09-18T21:57:57.614Z,5.50
2022-09-18T22:00:26.531Z,6.38
2022-09-18T22:02:55.903Z,7.40
2022-09-18T22:05:24.882Z,6.90
2022-09-18T22:07:58.757Z,6.60
2022-09-18T22:12:56.310Z,7.82
2022-09-18T22:15:25.222Z,7.35
2022-09-18T22:17:54.111Z,7.22
2022-09-18T22:20:23.085Z,6.07
2022-09-18T22:22:52.115Z,6.22
2022-09-18T22:25:20.948Z,6.45
2022-09-18T22:27:49.775Z,6.65
2022-09-18T22:30:18.716Z,7.40
2022-09-18T22:32:48.058Z,7.03
2022-09-18T22:35:17.004Z,7.95
2022-09-18T22:37:45.899Z,6.90
2022-09-18T22:40:14.880Z,6.72
2022-09-18T22:42:43.788Z,7.60
2022-09-18T22:45:13.143Z,9.02
2022-09-18T22:47:42.035Z,8.13
2022-09-18T22:50:11.143Z,9.38
2022-09-18T22:52:40.058Z,9.18
2022-09-18T22:55:09.243Z,10.88
2022-09-18T22:57:38.076Z,9.82
2022-09-18T23:00:07.923Z,7.90
2022-09-18T23:02:36.880Z,9.43
2022-09-18T23:05:06.642Z,9.95
2022-09-18T23:07:39.942Z,8.80
2022-09-18T23:10:09.478Z,10.18
2022-09-18T23:12:38.460Z,13.18
2022-09-18T23:15:08.327Z,9.73
2022-09-18T23:17:37.175Z,9.48
2022-09-18T23:20:06.379Z,11.13
2022-09-18T23:22:35.270Z,12.35
2022-09-18T23:25:04.193Z,12.00
2022-09-18T23:27:33.050Z,10.43
2022-09-18T23:30:01.940Z,9.43
2022-09-18T23:32:30.877Z,7.63
2022-09-18T23:34:59.728Z,10.35
2022-09-18T23:37:28.540Z,10.98
2022-09-18T23:39:57.479Z,9.50
2022-09-18T23:42:27.793Z,9.05
2022-09-18T23:44:57.332Z,12.10
2022-09-18T23:47:26.285Z,11.20
2022-09-18T23:49:55.125Z,8.60
2022-09-18T23:52:24.000Z,8.70
2022-09-18T23:54:52.886Z,8.82
2022-09-18T23:57:23.679Z,9.98
2022-09-18T23:59:52.703Z,10.38
